New Orleans, Louisiana
Traffic Map
Current Weather Conditions
New Orleans, Louisiana
Clear
Clear
84°
Feels Like: 91°
Wind Chill: 84° Ceiling: Unl
Heat Index: 91° Visibility: 10mi
Dew Point: 73° Wind: 0mph
Humidity: 70% Direction: ° ()
Pressure: 30.03in Gusts: 0mph
Raw Report DataKVSH 221315Z AUTO 00000KT 10SM CLR 29/23 A3003 RMK AO1
Traffic Incident Summary
Active as of:
Severity:
Category:
InformationThere was an issue retrieving the traffic information for this location. Please try a different location or try again shortly.
Advertisements
Track Severe Weather on mobile